Iles-de-la-Madeleine, Canada
Current Conditions -  °F | °C
As of 11:00 PM on Tuesday 25 Nov 2014 (Local Time) from CYGR Reporting Station
Scattered Clouds Scattered Clouds  
Wind Chill: 36°   Ceiling: Unl
Heat Index: 45°   Visibility: 15mi
Dew Point: 34°   Wind: 21mph
Humidity: 66%   Direction: 260°W
Pressure: 29.78"   Gusts: NA
Location:  47.42°N, 61.77°W
Report Text: CYGR 260300Z 26018KT 15SM SCT050 07/01 A2978 RMK SC4 LAST OBS/NEXT 261000 UTC SLP083
Loading
Personal Weather Stations






























Interactive Weather Map New forecast layout! Learn more

10-Day Weather Forecast

Advertisements
Track Severe Weather on mobile